Time;durP1;ratioP1;P1;durP2;ratioP2;P2;SDS_P1;SDS_P2;PMS_P1;PMS_P2;Temp;Humidity;BMP_temperature;BMP_pressure;BME280_temperature;BME280_humidity;BME280_pressure;Samples;Min_cycle;Max_cycle;Signal;HPM_P1;HPM_P2
2024/04/08 00:01:35;;;;;;;21.68;10.20;;;;;;;10.63;86.77;101015.38;1691365;83;21066;-68
2024/04/08 00:04:05;;;;;;;20.88;9.38;;;;;;;10.63;86.75;101020.00;1682576;84;21078;-66
2024/04/08 00:06:34;;;;;;;18.48;8.85;;;;;;;10.59;86.80;101015.41;1650100;87;21055;-66
2024/04/08 00:09:03;;;;;;;16.85;9.38;;;;;;;10.57;86.82;101013.37;1683982;85;21059;-66
2024/04/08 00:11:33;;;;;;;16.25;8.73;;;;;;;10.54;86.98;101010.99;1663949;86;21486;-68
2024/04/08 00:14:02;;;;;;;19.52;9.35;;;;;;;10.56;87.01;101006.70;1681283;85;21039;-66
2024/04/08 00:16:30;;;;;;;19.85;9.53;;;;;;;10.54;87.02;101005.52;1681125;84;21039;-67
2024/04/08 00:19:00;;;;;;;18.00;8.43;;;;;;;10.56;86.98;100993.00;1652262;87;21035;-67
2024/04/08 00:21:28;;;;;;;15.78;8.10;;;;;;;10.51;86.90;101002.28;1681073;84;21098;-66
2024/04/08 00:23:56;;;;;;;16.77;7.75;;;;;;;10.50;86.96;101002.80;1652453;87;21482;-68
2024/04/08 00:26:25;;;;;;;14.20;7.50;;;;;;;10.47;87.08;100994.43;1681128;85;21474;-68
2024/04/08 00:28:54;;;;;;;14.68;8.08;;;;;;;10.43;87.27;100997.20;1652124;87;21047;-66
2024/04/08 00:31:22;;;;;;;15.70;7.75;;;;;;;10.41;87.43;100997.05;1681321;85;21058;-66
2024/04/08 00:33:51;;;;;;;17.17;7.92;;;;;;;10.39;87.50;101010.89;1652288;86;21222;-69
2024/04/08 00:36:19;;;;;;;12.78;7.17;;;;;;;10.39;87.68;101012.27;1681510;85;21145;-67
2024/04/08 00:38:48;;;;;;;14.80;7.33;;;;;;;10.40;87.75;101004.41;1652256;87;21051;-67
2024/04/08 00:41:17;;;;;;;14.15;7.62;;;;;;;10.41;87.76;101011.59;1660349;85;21071;-67
2024/04/08 00:43:45;;;;;;;15.18;7.50;;;;;;;10.42;87.80;101006.45;1652184;87;21102;-66
2024/04/08 00:46:19;;;;;;;14.55;7.33;;;;;;;10.39;87.78;101009.52;1681070;84;21506;-67
2024/04/08 00:48:48;;;;;;;14.98;7.33;;;;;;;10.38;87.93;101006.45;1652569;87;21565;-67
2024/04/08 00:51:17;;;;;;;16.07;7.37;;;;;;;10.39;87.90;101006.78;1681119;84;21090;-66
2024/04/08 00:53:46;;;;;;;15.98;8.45;;;;;;;10.41;87.94;100997.91;1653572;85;21086;-67
2024/04/08 00:56:16;;;;;;;14.25;7.28;;;;;;;10.41;87.84;100995.16;1660258;85;21059;-67
2024/04/08 00:58:46;;;;;;;14.93;7.85;;;;;;;10.41;87.70;100995.16;1681275;85;21031;-66
2024/04/08 01:01:18;;;;;;;15.65;7.70;;;;;;;10.38;87.69;101003.71;1681105;85;21475;-67
2024/04/08 01:03:47;;;;;;;16.37;8.05;;;;;;;10.36;87.81;100999.45;1686458;85;21039;-66
2024/04/08 01:06:15;;;;;;;16.10;7.55;;;;;;;10.34;87.98;100998.78;1663809;84;21059;-67
2024/04/08 01:08:44;;;;;;;14.83;7.67;;;;;;;10.34;88.09;101001.00;1681260;85;21134;-66
2024/04/08 01:11:13;;;;;;;17.10;7.65;;;;;;;10.37;88.12;101005.27;1681088;85;21464;-66
2024/04/08 01:13:42;;;;;;;14.58;7.65;;;;;;;10.37;88.02;101000.64;1652181;85;21099;-67
2024/04/08 01:16:10;;;;;;;14.23;7.10;;;;;;;10.37;87.99;101008.00;1681035;85;21102;-68
2024/04/08 01:18:39;;;;;;;12.68;6.70;;;;;;;10.35;87.96;101008.19;1652218;85;21048;-66
2024/04/08 01:21:09;;;;;;;13.90;7.40;;;;;;;10.32;88.04;100999.47;1681228;84;21054;-67
2024/04/08 01:23:42;;;;;;;13.15;7.10;;;;;;;10.28;88.07;100998.98;1652340;87;21055;-67
2024/04/08 01:26:11;;;;;;;12.70;7.08;;;;;;;10.25;88.10;101003.45;1681115;84;21019;-66
2024/04/08 01:28:39;;;;;;;13.93;7.37;;;;;;;10.23;88.23;100999.19;1652402;87;21133;-65
2024/04/08 01:31:08;;;;;;;14.65;6.97;;;;;;;10.22;88.34;101002.45;1681095;84;21026;-67
2024/04/08 01:33:37;;;;;;;13.18;6.95;;;;;;;10.19;88.31;100991.83;1652120;87;21460;-67
2024/04/08 01:36:07;;;;;;;12.18;6.87;;;;;;;10.15;88.37;100992.70;1681234;84;21055;-66
2024/04/08 01:38:39;;;;;;;14.80;7.40;;;;;;;10.13;88.45;101000.77;1652336;87;21055;-67
2024/04/08 01:41:09;;;;;;;16.73;7.37;;;;;;;10.13;88.57;100992.55;1681097;85;21023;-67
2024/04/08 01:43:37;;;;;;;13.72;7.12;;;;;;;10.16;88.78;100996.30;1681054;84;21027;-66
2024/04/08 01:46:06;;;;;;;16.57;7.25;;;;;;;10.18;88.91;100994.23;1652343;85;21059;-67
2024/04/08 01:48:36;;;;;;;13.55;6.92;;;;;;;10.21;88.96;101001.27;1681391;85;21129;-67
2024/04/08 01:51:05;;;;;;;13.25;7.12;;;;;;;10.20;88.95;101007.25;1652307;87;21084;-67
2024/04/08 01:53:33;;;;;;;13.58;6.65;;;;;;;10.22;89.07;101012.55;1653691;87;21074;-67
2024/04/08 01:56:01;;;;;;;10.38;6.15;;;;;;;10.25;89.10;101008.08;1681254;84;21082;-67
2024/04/08 01:58:30;;;;;;;12.85;7.12;;;;;;;10.26;89.07;101001.57;1652246;85;21103;-68
2024/04/08 02:00:58;;;;;;;12.70;6.70;;;;;;;10.25;89.11;101000.72;1681171;84;21462;-66
2024/04/08 02:03:27;;;;;;;11.45;6.25;;;;;;;10.22;89.11;100999.71;1681150;84;21070;-68
2024/04/08 02:05:57;;;;;;;10.20;6.28;;;;;;;10.20;89.16;101000.89;1652290;85;21055;-68
2024/04/08 02:08:26;;;;;;;12.45;6.28;;;;;;;10.19;89.24;101004.15;1681209;84;21039;-67
2024/04/08 02:10:54;;;;;;;12.37;6.25;;;;;;;10.16;89.21;101012.72;1652239;87;21075;-67
2024/04/08 02:13:23;;;;;;;14.18;6.72;;;;;;;10.14;89.20;101006.58;1681374;84;21066;-66
2024/04/08 02:15:51;;;;;;;15.70;7.05;;;;;;;10.12;89.36;101001.28;1652307;87;21049;-66
2024/04/08 02:18:20;;;;;;;13.75;6.92;;;;;;;10.12;89.58;101003.16;1681216;85;21137;-66
2024/04/08 02:20:48;;;;;;;11.57;6.35;;;;;;;10.11;89.68;101004.20;1652163;85;21091;-66
2024/04/08 02:23:16;;;;;;;10.82;6.62;;;;;;;10.08;89.69;100997.71;1681165;85;21062;-66
2024/04/08 02:25:48;;;;;;;13.18;6.62;;;;;;;10.07;89.75;101000.11;1652388;85;21047;-68
2024/04/08 02:28:16;;;;;;;11.65;6.50;;;;;;;10.08;89.80;100999.94;1681329;85;21014;-67
2024/04/08 02:30:44;;;;;;;12.28;6.90;;;;;;;10.06;89.86;101001.14;1631920;87;21055;-67
2024/04/08 02:33:13;;;;;;;15.00;7.05;;;;;;;10.06;89.91;101001.14;1681107;85;21042;-67
2024/04/08 02:35:43;;;;;;;12.80;6.58;;;;;;;10.05;89.93;101000.81;1652297;87;21527;-66
2024/04/08 02:38:12;;;;;;;9.85;6.05;;;;;;;10.07;90.04;101004.22;1653600;85;21099;-66
2024/04/08 02:40:42;;;;;;;12.80;6.30;;;;;;;10.07;90.07;101002.33;1681287;85;21011;-67
2024/04/08 02:43:10;;;;;;;14.25;6.90;;;;;;;10.09;90.10;101006.27;1681150;85;21124;-67
2024/04/08 02:45:39;;;;;;;12.78;6.30;;;;;;;10.09;90.10;101000.27;1681124;85;21083;-66
2024/04/08 02:48:08;;;;;;;11.25;6.42;;;;;;;10.10;90.14;101006.08;1652238;87;21548;-67
2024/04/08 02:50:36;;;;;;;11.28;6.42;;;;;;;10.12;90.21;101001.80;1681104;84;21018;-68
2024/04/08 02:53:05;;;;;;;12.33;6.67;;;;;;;10.11;90.18;101006.94;1681205;84;21462;-67
2024/04/08 02:55:33;;;;;;;13.25;6.80;;;;;;;10.12;90.31;101015.48;1652357;85;21151;-66
2024/04/08 02:58:02;;;;;;;12.43;6.75;;;;;;;10.14;90.30;101016.16;1681165;84;21069;-66
2024/04/08 03:00:41;;;;;;;12.30;6.50;;;;;;;10.13;90.28;101012.57;1652504;87;21087;-68
2024/04/08 03:03:09;;;;;;;16.48;7.12;;;;;;;10.12;90.25;101014.12;1681168;84;21026;-66
2024/04/08 03:05:38;;;;;;;10.63;6.65;;;;;;;10.09;90.11;101011.73;1676180;85;21067;-66
2024/04/08 03:08:07;;;;;;;11.57;6.67;;;;;;;10.06;90.06;101020.31;1681313;85;21014;-67
2024/04/08 03:10:36;;;;;;;13.93;6.92;;;;;;;10.02;90.01;101014.86;1652527;85;21111;-68
2024/04/08 03:13:04;;;;;;;13.75;6.65;;;;;;;10.03;90.03;101009.20;1681208;85;21121;-67
2024/04/08 03:15:33;;;;;;;16.32;7.20;;;;;;;10.03;90.01;101011.94;1652200;85;21510;-66
2024/04/08 03:18:02;;;;;;;12.90;6.87;;;;;;;10.00;89.95;101008.19;1681305;84;21150;-66
2024/04/08 03:20:31;;;;;;;13.98;6.78;;;;;;;9.97;89.89;101014.54;1652318;85;21146;-67
2024/04/08 03:23:00;;;;;;;13.62;6.95;;;;;;;9.95;89.96;101015.23;1681378;84;21177;-67
2024/04/08 03:25:28;;;;;;;13.48;7.35;;;;;;;9.95;90.11;101013.87;1652505;87;21047;-67
2024/04/08 03:27:57;;;;;;;13.98;7.47;;;;;;;9.98;90.22;101014.88;1681369;84;21159;-66
2024/04/08 03:30:25;;;;;;;14.78;6.55;;;;;;;9.98;90.23;101018.98;1652405;87;21043;-68
2024/04/08 03:32:54;;;;;;;13.58;7.28;;;;;;;9.96;90.16;101015.57;1681339;85;21031;-67
2024/04/08 03:35:22;;;;;;;15.05;7.25;;;;;;;9.94;90.25;101021.74;1653759;87;21095;-68
2024/04/08 03:37:51;;;;;;;14.83;7.58;;;;;;;9.93;90.25;101028.25;1681331;84;21051;-67
2024/04/08 03:40:23;;;;;;;13.03;6.62;;;;;;;9.91;90.28;101021.58;1681255;85;21079;-66
2024/04/08 03:42:52;;;;;;;13.35;7.20;;;;;;;9.90;90.22;101029.46;1681117;84;21106;-68
2024/04/08 03:45:21;;;;;;;16.17;7.70;;;;;;;9.90;90.23;101027.23;1681288;84;21139;-66
2024/04/08 03:47:50;;;;;;;72.12;10.70;;;;;;;9.89;90.26;101021.42;1652427;87;21055;-65
2024/04/08 03:50:18;;;;;;;16.25;8.58;;;;;;;9.88;90.28;101025.19;1681115;85;21031;-67
2024/04/08 03:52:47;;;;;;;18.95;8.30;;;;;;;9.89;90.38;101021.42;1681227;85;21021;-66
2024/04/08 03:55:17;;;;;;;17.82;7.95;;;;;;;9.90;90.40;101025.87;1681108;85;21042;-66
2024/04/08 03:57:45;;;;;;;13.32;7.58;;;;;;;9.90;90.53;101019.02;1652325;85;21059;-67
2024/04/08 04:00:15;;;;;;;14.10;7.95;;;;;;;9.93;90.60;101025.52;1681076;84;21034;-66
2024/04/08 04:02:46;;;;;;;16.52;7.85;;;;;;;9.96;90.73;101022.42;1651308;85;21052;-66
2024/04/08 04:05:14;;;;;;;16.67;8.40;;;;;;;10.00;90.84;101017.77;1681605;84;21108;-67
2024/04/08 04:07:42;;;;;;;14.60;8.53;;;;;;;10.05;90.84;101013.13;1652205;85;21151;-67
2024/04/08 04:10:14;;;;;;;15.08;8.33;;;;;;;10.08;90.74;101016.87;1681026;85;21458;-67
2024/04/08 04:12:42;;;;;;;16.48;9.03;;;;;;;10.10;90.64;101019.77;1681136;84;21545;-66
2024/04/08 04:15:15;;;;;;;16.93;9.10;;;;;;;10.12;90.70;101025.07;1652337;87;21206;-66
2024/04/08 04:17:44;;;;;;;14.07;8.60;;;;;;;10.15;90.67;101027.45;1681101;84;21026;-66
2024/04/08 04:20:21;;;;;;;17.27;8.75;;;;;;;10.18;90.67;101027.94;1652075;85;21099;-67
2024/04/08 04:22:49;;;;;;;17.15;8.85;;;;;;;10.22;90.69;101027.09;1681256;85;21548;-67
2024/04/08 04:25:20;;;;;;;21.48;9.23;;;;;;;10.27;90.77;101023.30;1652198;85;21475;-66
2024/04/08 04:27:49;;;;;;;21.45;9.68;;;;;;;10.34;90.66;101033.87;1681158;85;21003;-67
2024/04/08 04:30:18;;;;;;;15.23;8.80;;;;;;;10.39;90.57;101040.17;1652342;87;21071;-67
2024/04/08 04:32:47;;;;;;;21.35;8.93;;;;;;;10.45;90.37;101035.38;1681048;84;21447;-67
2024/04/08 04:35:16;;;;;;;19.37;9.60;;;;;;;10.49;90.07;101040.83;1652159;87;21242;-67
2024/04/08 04:37:44;;;;;;;19.90;9.48;;;;;;;10.52;89.84;101046.46;1681577;85;21011;-66
2024/04/08 04:40:12;;;;;;;20.40;9.50;;;;;;;10.57;89.77;101034.44;1651995;85;21085;-68
2024/04/08 04:42:44;;;;;;;19.45;9.90;;;;;;;10.62;89.47;101036.11;1681246;85;21070;-68
2024/04/08 04:45:13;;;;;;;20.12;9.63;;;;;;;10.66;89.29;101036.94;1652296;85;21142;-67
2024/04/08 04:47:41;;;;;;;19.57;9.88;;;;;;;10.72;89.07;101040.31;1681020;85;20991;-67
2024/04/08 04:50:10;;;;;;;19.30;10.23;;;;;;;10.77;88.97;101037.88;1652266;87;21479;-68
2024/04/08 04:52:38;;;;;;;22.85;10.53;;;;;;;10.85;88.79;101048.44;1681003;85;21058;-67
2024/04/08 04:55:07;;;;;;;23.70;10.80;;;;;;;10.93;88.69;101045.62;1652156;85;21103;-67
2024/04/08 04:57:35;;;;;;;27.67;10.80;;;;;;;11.00;88.54;101042.48;1681219;84;21032;-66
2024/04/08 05:00:05;;;;;;;24.90;12.60;;;;;;;11.08;88.35;101041.92;1652149;85;21083;-68
2024/04/08 05:02:34;;;;;;;21.33;10.58;;;;;;;11.17;88.12;101044.59;1681179;84;21038;-67
2024/04/08 05:05:03;;;;;;;22.22;10.98;;;;;;;11.23;87.81;101041.10;1652238;87;21015;-68
2024/04/08 05:07:32;;;;;;;27.10;10.90;;;;;;;11.30;87.53;101036.58;1680945;85;21087;-67
2024/04/08 05:10:00;;;;;;;25.40;11.05;;;;;;;11.35;87.31;101048.69;1652422;85;21543;-67
2024/04/08 05:12:32;;;;;;;24.35;10.38;;;;;;;11.43;87.08;101048.61;1681236;85;21074;-70
2024/04/08 05:15:01;;;;;;;20.82;10.45;;;;;;;11.51;86.74;101057.27;1652323;85;21071;-68
2024/04/08 05:17:30;;;;;;;25.65;11.50;;;;;;;11.59;86.41;101050.84;1681027;85;21744;-68
2024/04/08 05:20:03;;;;;;;22.25;11.50;;;;;;;11.67;86.20;101058.47;1652131;85;21068;-68
2024/04/08 05:22:32;;;;;;;25.35;11.30;;;;;;;11.77;85.97;101052.73;1681055;84;21663;-68
2024/04/08 05:25:01;;;;;;;25.00;10.98;;;;;;;11.87;85.72;101048.34;1652186;86;21556;-68
2024/04/08 05:27:30;;;;;;;24.67;11.40;;;;;;;11.96;85.44;101055.44;1681325;84;21046;-68
2024/04/08 05:29:59;;;;;;;23.30;10.72;;;;;;;12.04;85.21;101049.84;1652390;85;21047;-67
2024/04/08 05:32:28;;;;;;;23.95;10.80;;;;;;;12.11;84.77;101048.03;1681151;85;21165;-68
2024/04/08 05:34:56;;;;;;;30.17;11.30;;;;;;;12.19;84.48;101034.71;1652199;87;21087;-68
2024/04/08 05:37:25;;;;;;;20.05;9.88;;;;;;;12.27;84.22;101035.97;1681296;84;21081;-68
2024/04/08 05:39:54;;;;;;;22.05;9.98;;;;;;;12.38;83.89;101040.47;1652421;87;21080;-69
2024/04/08 05:42:22;;;;;;;162.03;16.55;;;;;;;12.47;83.30;101039.83;1681118;85;21419;-68
2024/04/08 05:44:51;;;;;;;29.87;10.90;;;;;;;12.56;83.14;101036.44;1652423;87;21079;-69
2024/04/08 05:47:22;;;;;;;20.52;9.85;;;;;;;12.67;82.89;101033.16;1681156;85;21670;-67
2024/04/08 05:49:50;;;;;;;26.62;10.25;;;;;;;12.77;82.33;101032.84;1631814;86;21167;-68
2024/04/08 05:52:20;;;;;;;26.07;10.45;;;;;;;12.83;81.79;101037.03;1681215;84;21110;-69
2024/04/08 05:54:48;;;;;;;19.75;9.75;;;;;;;12.92;81.42;101034.99;1652165;85;21130;-66
2024/04/08 05:57:17;;;;;;;20.12;9.33;;;;;;;13.01;80.93;101040.19;1681009;85;21528;-69
2024/04/08 05:59:47;;;;;;;16.90;9.30;;;;;;;13.10;80.24;101035.92;1652172;85;21473;-67
2024/04/08 06:02:16;;;;;;;18.07;9.30;;;;;;;13.17;79.56;101039.09;1681109;84;21038;-67
2024/04/08 06:04:46;;;;;;;17.37;8.70;;;;;;;13.24;79.06;101043.27;1652235;85;21122;-67
2024/04/08 06:07:16;;;;;;;20.62;8.48;;;;;;;13.30;78.45;101046.08;1681336;85;21054;-67
2024/04/08 06:09:45;;;;;;;19.65;8.83;;;;;;;13.37;77.96;101046.13;1631991;87;21487;-68
2024/04/08 06:12:14;;;;;;;17.15;8.10;;;;;;;13.43;77.60;101045.32;1681085;84;21520;-68
2024/04/08 06:14:42;;;;;;;23.00;8.58;;;;;;;13.49;77.20;101045.89;1652459;86;21093;-69
2024/04/08 06:17:10;;;;;;;16.10;7.85;;;;;;;13.57;76.88;101049.02;1681302;85;21003;-71
2024/04/08 06:19:40;;;;;;;22.37;9.13;;;;;;;13.63;76.57;101050.97;1652406;87;21023;-69
2024/04/08 06:22:09;;;;;;;25.90;9.53;;;;;;;13.69;76.25;101046.06;1681139;85;20994;-68
2024/04/08 06:24:40;;;;;;;20.88;9.00;;;;;;;13.75;76.04;101046.63;1653672;85;21063;-68
2024/04/08 06:27:08;;;;;;;18.15;8.50;;;;;;;13.80;75.72;101044.64;1673454;85;21031;-68
2024/04/08 06:29:38;;;;;;;15.65;8.30;;;;;;;13.83;75.56;101045.08;1652215;87;21103;-68
2024/04/08 06:32:07;;;;;;;25.08;8.85;;;;;;;13.88;75.36;101038.95;1660057;85;21478;-67
2024/04/08 06:34:36;;;;;;;15.63;7.67;;;;;;;13.91;75.19;101042.69;1681153;84;21556;-68
2024/04/08 06:37:05;;;;;;;19.92;7.70;;;;;;;13.96;75.08;101049.81;1652376;85;21055;-69
2024/04/08 06:39:34;;;;;;;19.07;8.23;;;;;;;14.01;74.89;101051.42;1660117;85;21067;-67
2024/04/08 06:42:03;;;;;;;20.10;9.00;;;;;;;14.07;74.73;101063.01;1651992;85;21023;-68
2024/04/08 06:44:32;;;;;;;20.60;8.35;;;;;;;14.11;74.57;101050.52;1681067;85;21069;-69
2024/04/08 06:47:02;;;;;;;16.40;8.03;;;;;;;14.17;74.33;101053.83;1652337;87;21071;-67
2024/04/08 06:49:31;;;;;;;17.42;7.17;;;;;;;14.23;74.14;101057.67;1681315;84;21066;-68
2024/04/08 06:51:59;;;;;;;13.30;5.28;;;;;;;14.28;73.78;101054.63;1652170;87;21047;-68
2024/04/08 06:54:28;;;;;;;10.25;4.90;;;;;;;14.35;73.14;101056.58;1660179;85;21493;-68
2024/04/08 06:56:57;;;;;;;15.70;5.40;;;;;;;14.38;72.78;101052.03;1652317;85;21095;-67
2024/04/08 06:59:27;;;;;;;15.05;5.72;;;;;;;14.44;72.25;101051.24;1681183;84;21016;-68
2024/04/08 07:01:57;;;;;;;20.52;5.12;;;;;;;14.49;71.94;101049.56;1632281;87;21079;-68
2024/04/08 07:04:26;;;;;;;15.72;4.58;;;;;;;14.55;71.59;101042.36;1660030;85;21458;-67
2024/04/08 07:06:54;;;;;;;20.48;5.75;;;;;;;14.63;71.26;101043.55;1647094;85;21511;-68
2024/04/08 07:09:26;;;;;;;16.87;6.05;;;;;;;14.70;71.14;101043.03;1663018;85;21094;-68
2024/04/08 07:11:57;;;;;;;11.18;4.40;;;;;;;14.78;70.98;101039.23;1691519;84;21034;-68
2024/04/08 07:14:26;;;;;;;9.78;4.35;;;;;;;14.87;70.78;101040.20;1691276;85;21002;-69
2024/04/08 07:16:55;;;;;;;10.63;4.15;;;;;;;15.01;70.14;101038.86;1691578;85;21030;-70
2024/04/08 07:19:24;;;;;;;10.40;4.10;;;;;;;15.13;69.60;101034.41;1725460;82;21034;-68
2024/04/08 07:21:53;;;;;;;11.80;4.25;;;;;;;15.26;68.93;101040.45;1691494;83;21085;-70
2024/04/08 07:24:25;;;;;;;11.55;4.00;;;;;;;15.37;68.21;101039.81;1691621;85;21030;-69
2024/04/08 07:26:54;;;;;;;14.38;4.67;;;;;;;15.48;67.89;101037.78;1679880;85;21054;-68
2024/04/08 07:29:23;;;;;;;9.93;4.20;;;;;;;15.55;67.61;101040.01;1691379;85;21497;-67
2024/04/08 07:31:52;;;;;;;7.92;3.60;;;;;;;15.64;67.14;101040.16;1691318;85;21461;-68
2024/04/08 07:34:21;;;;;;;13.38;4.72;;;;;;;15.74;66.65;101036.42;1691516;85;21069;-68
2024/04/08 07:36:50;;;;;;;10.60;4.47;;;;;;;15.85;66.10;101039.90;1691286;84;21038;-68
2024/04/08 07:39:19;;;;;;;12.65;4.33;;;;;;;15.95;65.63;101029.77;1691484;84;21434;-68
2024/04/08 07:41:47;;;;;;;8.28;3.37;;;;;;;16.05;65.24;101035.69;1691471;84;21474;-67
2024/04/08 07:44:16;;;;;;;9.88;2.77;;;;;;;16.13;64.71;101024.38;1691430;85;21465;-69
2024/04/08 07:46:45;;;;;;;5.55;2.90;;;;;;;16.27;63.68;101026.59;1691632;85;21026;-69
2024/04/08 07:49:13;;;;;;;8.65;3.20;;;;;;;16.55;62.78;101023.99;1691472;84;21058;-66
2024/04/08 07:51:42;;;;;;;8.83;2.87;;;;;;;17.02;61.96;101029.05;1691504;85;21449;-67
2024/04/08 07:54:13;;;;;;;9.58;2.47;;;;;;;17.59;60.50;101017.92;1691540;85;21052;-70
2024/04/08 07:56:42;;;;;;;10.35;3.12;;;;;;;18.18;57.01;101009.48;1691601;84;21030;-70
2024/04/08 07:59:11;;;;;;;5.70;2.98;;;;;;;18.76;55.66;101017.27;1691436;85;21264;-70
2024/04/08 08:01:40;;;;;;;11.63;3.95;;;;;;;19.28;54.50;101011.43;1691509;85;21507;-68
2024/04/08 08:04:09;;;;;;;8.43;3.08;;;;;;;19.85;52.90;101016.73;1691387;84;21054;-68
2024/04/08 08:06:38;;;;;;;10.00;3.22;;;;;;;20.46;51.18;101010.28;1691545;85;21042;-76
2024/04/08 08:09:07;;;;;;;6.47;3.10;;;;;;;21.10;49.78;101010.39;1664012;84;21039;-72
2024/04/08 08:11:36;;;;;;;11.25;3.90;;;;;;;21.70;48.12;101016.70;1659108;84;21091;-73
2024/04/08 08:14:04;;;;;;;7.92;3.25;;;;;;;22.21;46.89;101014.67;1730619;83;21520;-74
2024/04/08 08:16:33;;;;;;;10.68;4.53;;;;;;;22.70;45.45;101020.27;1689477;84;21086;-74
2024/04/08 08:19:02;;;;;;;8.63;3.37;;;;;;;23.19;43.81;101016.05;1652259;86;21111;-73
2024/04/08 08:21:31;;;;;;;9.75;3.33;;;;;;;23.56;41.70;101009.97;1652276;87;21139;-73
2024/04/08 08:24:00;;;;;;;9.08;3.95;;;;;;;23.84;40.44;101014.34;1660253;86;21044;-73
2024/04/08 08:26:32;;;;;;;10.70;3.70;;;;;;;23.96;39.96;101012.73;1642430;87;21035;-73
2024/04/08 08:29:00;;;;;;;6.87;3.20;;;;;;;24.02;39.44;101014.44;1642576;86;21069;-71
2024/04/08 08:31:29;;;;;;;7.80;3.42;;;;;;;24.16;39.60;101006.42;1673031;86;21483;-72
2024/04/08 08:33:58;;;;;;;9.60;4.60;;;;;;;24.40;39.32;101015.23;1673164;85;21051;-72
2024/04/08 08:36:27;;;;;;;10.70;3.87;;;;;;;24.63;38.30;101014.18;1672956;86;21055;-73
2024/04/08 08:38:55;;;;;;;14.60;3.00;;;;;;;24.76;37.55;101009.20;1673333;86;21047;-75
2024/04/08 08:41:24;;;;;;;6.42;2.95;;;;;;;24.86;37.36;101011.45;1680733;83;21102;-72
2024/04/08 08:43:54;;;;;;;9.45;3.25;;;;;;;24.99;36.70;101002.25;1730542;82;21019;-73
2024/04/08 08:46:25;;;;;;;5.72;3.02;;;;;;;25.08;35.96;101000.02;1690703;83;21031;-73
2024/04/08 08:48:53;;;;;;;7.42;3.12;;;;;;;25.06;36.14;101006.47;1730343;83;21451;-71
2024/04/08 08:51:21;;;;;;;7.42;2.27;;;;;;;25.10;36.11;100999.73;1730344;83;21059;-73
2024/04/08 08:53:51;;;;;;;6.97;2.50;;;;;;;24.81;34.22;101003.04;1730462;83;21012;-71
2024/04/08 08:56:20;;;;;;;6.10;2.52;;;;;;;24.81;34.22;101003.04;1730323;83;21087;-73
2024/04/08 08:58:53;;;;;;;6.72;2.72;;;;;;;24.56;35.05;100998.19;1730615;82;21039;-73
2024/04/08 09:01:22;;;;;;;7.40;2.20;;;;;;;24.38;35.08;100990.85;1730544;83;21051;-76
2024/04/08 09:03:51;;;;;;;7.58;2.77;;;;;;;24.15;35.45;100984.58;1708945;83;21051;-72
2024/04/08 09:06:20;;;;;;;5.95;2.70;;;;;;;23.86;35.61;100987.48;1730624;83;21031;-74
2024/04/08 09:08:49;;;;;;;6.65;2.30;;;;;;;23.62;36.42;100976.72;1730172;83;21459;-71
2024/04/08 09:11:18;;;;;;;8.18;2.25;;;;;;;23.55;35.79;100987.86;1730276;83;21078;-72
2024/04/08 09:13:49;;;;;;;5.83;2.42;;;;;;;23.34;36.26;100977.02;1731452;82;21051;-71
2024/04/08 09:16:23;;;;;;;6.85;2.20;;;;;;;23.15;36.30;100981.34;1689331;84;21102;-71
2024/04/08 09:18:53;;;;;;;11.63;2.42;;;;;;;22.94;36.73;100976.14;1652286;85;21070;-71
2024/04/08 09:21:22;;;;;;;7.28;2.58;;;;;;;22.80;37.17;100970.14;1602741;88;21614;-69
2024/04/08 09:24:07;;;;;;;7.15;2.10;;;;;;;22.72;37.45;100970.56;1652528;87;21095;-67
2024/04/08 09:26:36;;;;;;;7.25;2.00;;;;;;;22.68;37.32;100974.43;1628480;87;21056;-69
2024/04/08 09:29:04;;;;;;;6.12;2.30;;;;;;;22.65;37.21;100965.73;1634748;87;21498;-68
2024/04/08 09:31:34;;;;;;;5.45;2.12;;;;;;;22.58;37.22;100965.11;1652003;87;21031;-68
2024/04/08 09:34:02;;;;;;;7.08;2.25;;;;;;;22.53;37.37;100959.47;1624027;87;21541;-69
2024/04/08 09:36:32;;;;;;;7.83;2.35;;;;;;;22.46;37.55;100953.53;1652279;87;21255;-69
2024/04/08 09:39:01;;;;;;;6.95;2.05;;;;;;;22.38;37.67;100955.95;1623963;87;21116;-71
2024/04/08 09:41:30;;;;;;;8.55;2.00;;;;;;;22.28;37.99;100954.45;1652154;87;21434;-73
2024/04/08 09:43:59;;;;;;;5.08;1.72;;;;;;;22.22;37.57;100961.92;1624319;88;21114;-71
2024/04/08 09:46:28;;;;;;;7.58;2.22;;;;;;;22.14;37.57;100960.44;1652228;86;21049;-72
2024/04/08 09:48:58;;;;;;;7.47;3.42;;;;;;;22.12;37.59;100945.05;1624286;88;21099;-72
2024/04/08 09:51:28;;;;;;;11.73;2.55;;;;;;;22.07;36.95;100944.41;1651394;85;21509;-69
2024/04/08 09:53:57;;;;;;;8.28;2.30;;;;;;;22.06;37.38;100946.91;1624356;88;21031;-67
2024/04/08 09:56:28;;;;;;;5.42;1.67;;;;;;;22.04;37.73;100949.11;1652182;87;21137;-66
2024/04/08 09:59:15;;;;;;;5.70;1.85;;;;;;;22.08;37.63;100936.88;1624147;88;21020;-70
2024/04/08 10:01:43;;;;;;;;;;;;;;;22.09;37.05;100948.33;1654255;87;21124;-71
2024/04/08 10:04:23;;;;;;;7.08;1.67;;;;;;;22.04;37.15;100951.06;1652024;87;20246;-70
2024/04/08 10:06:55;;;;;;;5.83;1.70;;;;;;;21.99;37.29;100942.59;1647196;87;21131;-70
2024/04/08 10:09:25;;;;;;;4.65;1.90;;;;;;;21.94;36.96;100946.17;1651887;85;21238;-70
2024/04/08 10:11:55;;;;;;;5.80;1.80;;;;;;;21.89;37.14;100939.67;1624219;87;21508;-70
2024/04/08 10:14:25;;;;;;;4.17;1.80;;;;;;;21.82;37.45;100944.05;1652324;85;21090;-71
2024/04/08 10:16:55;;;;;;;4.10;1.95;;;;;;;21.77;37.01;100940.65;1645582;87;21092;-69
2024/04/08 10:19:24;;;;;;;6.28;2.00;;;;;;;21.80;37.18;100942.08;1635989;84;21525;-70
2024/04/08 10:21:53;;;;;;;5.60;2.20;;;;;;;21.85;37.23;100936.56;1722441;82;21112;-69
2024/04/08 10:24:30;;;;;;;7.50;2.15;;;;;;;21.86;37.24;100931.27;1695488;84;21047;-71
2024/04/08 10:27:06;;;;;;;6.17;2.10;;;;;;;21.88;37.45;100922.09;1655784;85;21522;-70
2024/04/08 10:29:39;;;;;;;5.40;1.87;;;;;;;21.94;37.40;100916.87;1695263;84;21492;-70
2024/04/08 10:32:08;;;;;;;5.08;1.70;;;;;;;21.96;37.21;100911.02;1695246;82;21056;-73
2024/04/08 10:34:37;;;;;;;5.75;2.17;;;;;;;21.97;36.80;100914.11;1695312;85;21040;-74
2024/04/08 10:37:05;;;;;;;9.73;2.42;;;;;;;21.95;37.16;100913.52;1695445;85;21020;-73
2024/04/08 10:39:34;;;;;;;9.18;3.30;;;;;;;21.92;37.28;100912.65;1695387;84;21079;-73
2024/04/08 10:42:14;;;;;;;5.85;1.85;;;;;;;21.92;37.26;100909.86;1695356;84;21478;-73
2024/04/08 10:44:43;;;;;;;5.87;1.87;;;;;;;21.92;37.17;100907.07;1684138;85;21091;-73
2024/04/08 10:47:14;;;;;;;7.80;1.80;;;;;;;21.92;37.06;100907.91;1671809;84;21063;-75
2024/04/08 10:49:42;;;;;;;5.72;1.90;;;;;;;21.97;37.19;100904.34;1631927;86;21063;-69
2024/04/08 10:52:12;;;;;;;6.55;2.08;;;;;;;21.99;36.75;100893.20;1672632;86;21036;-70
2024/04/08 10:54:43;;;;;;;5.97;1.65;;;;;;;21.97;36.72;100895.97;1648301;86;21583;-71
2024/04/08 10:57:12;;;;;;;8.10;2.50;;;;;;;21.96;36.89;100885.91;1672883;86;21063;-72
2024/04/08 10:59:41;;;;;;;7.00;1.98;;;;;;;21.97;36.86;100881.46;1673003;86;21456;-71
2024/04/08 11:02:14;;;;;;;6.40;2.27;;;;;;;21.98;36.95;100884.55;1672873;86;21099;-72
2024/04/08 11:04:43;;;;;;;4.60;1.90;;;;;;;22.01;36.92;100885.42;1670905;86;21071;-73
2024/04/08 11:07:12;;;;;;;6.05;1.87;;;;;;;22.03;37.01;100879.05;1673130;86;21064;-71
2024/04/08 11:09:41;;;;;;;6.47;2.00;;;;;;;22.04;37.01;100875.16;1674509;84;21107;-70
2024/04/08 11:12:14;;;;;;;8.98;2.45;;;;;;;22.05;36.98;100871.26;1677865;85;21110;-71
2024/04/08 11:14:45;;;;;;;5.85;2.08;;;;;;;22.05;36.94;100874.61;1677789;85;21093;-70
2024/04/08 11:17:24;;;;;;;5.37;1.92;;;;;;;22.05;37.12;100870.42;1677900;85;21515;-71
2024/04/08 11:20:21;;;;;;;7.20;1.82;;;;;;;22.06;37.19;100869.31;1670337;85;21142;-71
2024/04/08 11:22:54;;;;;;;7.00;2.15;;;;;;;22.09;36.71;100871.02;1672335;84;21091;-71
2024/04/08 11:25:24;;;;;;;8.93;2.52;;;;;;;22.11;36.77;100873.03;1697968;84;21090;-68
2024/04/08 11:27:55;;;;;;;6.22;1.92;;;;;;;22.13;36.50;100867.19;1698666;83;21454;-69
2024/04/08 11:30:23;;;;;;;7.42;1.92;;;;;;;22.17;36.73;100859.12;1666987;86;21057;-70